Time;durP1;ratioP1;P1;durP2;ratioP2;P2;SDS_P1;SDS_P2;PMS_P1;PMS_P2;Temp;Humidity;BMP_temperature;BMP_pressure;BME280_temperature;BME280_humidity;BME280_pressure;Samples;Min_cycle;Max_cycle;Signal;HPM_P1;HPM_P2
2023/06/20 00:01:13;;;;;;;6.28;5.78;;;;;;;24.96;66.97;98190.09;5070532;27;103921;-81
2023/06/20 00:03:41;;;;;;;7.20;6.50;;;;;;;24.98;66.79;98193.44;5063184;27;103694;-82
2023/06/20 00:06:09;;;;;;;6.85;6.25;;;;;;;25.03;66.61;98196.31;5068173;27;103261;-82
2023/06/20 00:08:37;;;;;;;8.13;7.43;;;;;;;24.50;70.29;98193.75;5048801;27;103173;-81
2023/06/20 00:11:05;;;;;;;7.60;6.90;;;;;;;24.67;68.88;98204.94;5047868;27;104215;-82
2023/06/20 00:13:34;;;;;;;6.43;5.93;;;;;;;24.82;68.15;98215.50;5043333;27;103502;-82
2023/06/20 00:16:03;;;;;;;5.50;5.10;;;;;;;24.92;67.01;98230.25;5066533;27;103296;-81
2023/06/20 00:18:31;;;;;;;5.20;4.80;;;;;;;25.03;65.71;98245.78;5064715;27;102620;-82
2023/06/20 00:20:59;;;;;;;6.27;5.83;;;;;;;25.07;66.52;98247.00;5047552;27;104101;-82
2023/06/20 00:23:29;;;;;;;6.57;6.05;;;;;;;25.07;66.75;98251.56;5053526;27;103310;-82
2023/06/20 00:25:57;;;;;;;7.47;6.88;;;;;;;25.08;67.56;98258.66;5066482;27;104518;-82
2023/06/20 00:28:25;;;;;;;8.80;8.00;;;;;;;24.49;69.93;98259.59;5066469;27;102798;-82
2023/06/20 00:30:53;;;;;;;8.20;7.50;;;;;;;24.61;68.17;98257.91;5067187;27;103665;-81
2023/06/20 00:33:25;;;;;;;7.07;6.47;;;;;;;24.93;66.11;98267.00;5070818;27;103380;-82
2023/06/20 00:35:53;;;;;;;7.10;6.50;;;;;;;25.12;65.16;98282.31;5047048;27;104474;-82
2023/06/20 00:38:21;;;;;;;6.03;5.53;;;;;;;25.22;64.43;98298.94;5049536;27;102818;-82
2023/06/20 00:40:49;;;;;;;6.70;6.18;;;;;;;25.21;63.99;98326.16;5043693;27;103862;-82
2023/06/20 00:43:18;;;;;;;7.13;6.43;;;;;;;25.01;64.55;98349.72;5065491;27;103441;-81
2023/06/20 00:45:46;;;;;;;6.40;5.90;;;;;;;24.49;64.85;98359.47;5042595;27;103411;-81
2023/06/20 00:48:15;;;;;;;6.63;6.00;;;;;;;24.22;66.13;98372.09;5060303;27;102983;-81
2023/06/20 00:50:44;;;;;;;11.95;6.10;;;;;;;24.17;67.55;98376.47;5063578;27;102820;-81
2023/06/20 00:53:15;;;;;;;8.30;6.45;;;;;;;23.63;71.72;98398.88;5049003;27;104415;-80
2023/06/20 00:55:43;;;;;;;7.55;6.60;;;;;;;23.63;74.02;98393.47;5049224;27;103195;-81
2023/06/20 00:58:10;;;;;;;7.75;6.72;;;;;;;23.52;75.54;98393.25;5045022;27;102775;-81
2023/06/20 01:00:38;;;;;;;7.40;6.70;;;;;;;23.28;78.41;98402.59;5046362;27;102849;-80
2023/06/20 01:03:09;;;;;;;8.43;7.63;;;;;;;23.13;79.40;98407.25;5047602;27;104391;-80
2023/06/20 01:05:38;;;;;;;7.90;7.20;;;;;;;22.83;81.51;98403.94;5064185;27;103173;-80
2023/06/20 01:08:15;;;;;;;7.75;7.05;;;;;;;22.47;82.60;98406.72;5067859;27;102627;-80
2023/06/20 01:10:56;;;;;;;8.03;7.33;;;;;;;22.46;84.32;98414.97;5046881;27;103111;-81
2023/06/20 01:13:31;;;;;;;7.53;6.82;;;;;;;22.44;83.67;98412.47;5042592;27;104159;-80
2023/06/20 01:16:06;;;;;;;7.67;7.07;;;;;;;22.69;82.46;98414.78;5046285;27;103234;-80
2023/06/20 01:18:44;;;;;;;7.93;7.13;;;;;;;22.21;85.15;98421.75;5069547;27;102652;-79
2023/06/20 01:21:17;;;;;;;7.72;7.03;;;;;;;22.28;86.31;98428.06;5063845;27;103076;-80
2023/06/20 01:23:55;;;;;;;7.35;6.70;;;;;;;22.57;84.10;98416.34;5043985;27;104652;-80
2023/06/20 01:26:31;;;;;;;7.45;6.75;;;;;;;22.17;86.00;98415.09;5063787;27;103251;-80
2023/06/20 01:29:13;;;;;;;6.82;6.30;;;;;;;22.37;84.71;98419.66;5051508;27;102634;-82
2023/06/20 01:31:47;;;;;;;7.28;6.40;;;;;;;22.37;84.64;98418.84;5055235;27;102911;-81
2023/06/20 01:34:19;;;;;;;6.20;5.63;;;;;;;22.72;82.98;98417.94;5044289;27;103345;-82
2023/06/20 01:36:52;;;;;;;6.07;5.55;;;;;;;22.64;84.82;98412.69;5058529;27;103215;-82
2023/06/20 01:39:24;;;;;;;6.10;5.50;;;;;;;22.68;83.16;98403.19;5042386;27;103969;-82
2023/06/20 01:41:57;;;;;;;5.70;5.20;;;;;;;22.96;82.52;98392.44;5063269;27;103047;-82
2023/06/20 01:44:26;;;;;;;5.97;5.47;;;;;;;22.74;84.24;98390.81;5046236;27;104453;-82
2023/06/20 01:46:57;;;;;;;5.70;4.80;;;;;;;22.62;82.79;98376.19;5044323;27;104175;-82
2023/06/20 01:49:27;;;;;;;5.32;4.82;;;;;;;22.54;83.20;98380.69;5043366;27;102987;-82
2023/06/20 01:51:59;;;;;;;5.10;4.70;;;;;;;22.70;82.92;98384.16;5047269;27;102987;-83
2023/06/20 01:54:32;;;;;;;5.10;4.70;;;;;;;22.77;82.31;98387.72;5044963;27;105352;-82
2023/06/20 01:57:02;;;;;;;4.60;4.30;;;;;;;22.80;82.82;98379.25;5047379;27;103192;-82
2023/06/20 01:59:31;;;;;;;4.70;4.30;;;;;;;22.60;82.72;98379.06;5044568;27;102908;-82
2023/06/20 02:02:00;;;;;;;4.65;4.25;;;;;;;22.31;84.11;98373.84;5046828;27;103965;-82
2023/06/20 02:04:29;;;;;;;4.60;4.20;;;;;;;22.47;83.80;98379.81;5047864;27;104269;-81
2023/06/20 02:06:59;;;;;;;4.10;3.80;;;;;;;22.92;81.26;98375.84;5048548;27;103217;-80
2023/06/20 02:09:30;;;;;;;4.40;4.00;;;;;;;22.94;80.89;98391.78;5044155;27;102879;-83
2023/06/20 02:11:59;;;;;;;4.45;4.05;;;;;;;23.14;80.28;98387.38;5067541;27;102715;-81
2023/06/20 02:14:27;;;;;;;3.75;3.45;;;;;;;23.33;78.43;98381.28;5049340;27;104238;-80
2023/06/20 02:17:00;;;;;;;4.50;4.10;;;;;;;23.16;80.39;98379.91;5040806;27;103262;-81
2023/06/20 02:19:28;;;;;;;4.67;4.27;;;;;;;23.12;80.69;98377.84;5048467;27;103039;-81
2023/06/20 02:21:58;;;;;;;4.70;4.40;;;;;;;22.96;81.28;98366.31;5047343;27;104335;-81
2023/06/20 02:24:31;;;;;;;5.53;4.75;;;;;;;22.74;82.43;98369.25;5042431;27;103529;-81
2023/06/20 02:27:00;;;;;;;5.97;5.38;;;;;;;22.38;84.76;98358.59;5068965;27;102972;-81
2023/06/20 02:29:33;;;;;;;6.17;5.40;;;;;;;22.33;84.66;98352.97;5041986;27;103213;-81
2023/06/20 02:32:02;;;;;;;5.30;4.90;;;;;;;22.56;84.08;98341.97;5051247;27;104077;-82
2023/06/20 02:34:33;;;;;;;4.93;4.43;;;;;;;22.70;83.34;98346.47;5045195;27;103480;-82
2023/06/20 02:37:05;;;;;;;5.43;4.80;;;;;;;22.76;83.13;98345.69;5064342;27;103286;-84
2023/06/20 02:39:35;;;;;;;5.82;5.30;;;;;;;22.56;83.70;98345.50;5042163;27;105653;-81
2023/06/20 02:42:04;;;;;;;5.43;5.00;;;;;;;22.64;82.99;98342.69;5047650;27;104434;-82
2023/06/20 02:44:32;;;;;;;4.53;4.13;;;;;;;22.90;81.09;98352.84;5063931;27;103956;-81
2023/06/20 02:47:14;;;;;;;5.10;4.60;;;;;;;23.02;80.72;98352.06;5060052;27;103210;-80
2023/06/20 02:49:51;;;;;;;5.70;5.10;;;;;;;22.29;83.96;98343.59;5040904;27;102920;-81
2023/06/20 02:52:26;;;;;;;6.00;5.50;;;;;;;21.46;90.29;98348.66;5047740;27;103808;-81
2023/06/20 02:55:05;;;;;;;5.72;5.22;;;;;;;21.67;89.44;98343.38;5064516;27;103727;-79
2023/06/20 02:57:33;;;;;;;5.60;5.10;;;;;;;22.22;85.73;98342.72;5057355;27;103874;-83
2023/06/20 03:00:09;;;;;;;6.20;5.70;;;;;;;21.79;86.66;98341.81;5049496;27;102672;-83
2023/06/20 03:02:42;;;;;;;5.37;4.97;;;;;;;21.77;88.39;98349.25;5048302;27;102889;-82
2023/06/20 03:19:13;;;;;;;4.93;4.50;;;;;;;21.41;89.70;98361.84;5123836;27;102481;-79
2023/06/20 03:21:43;;;;;;;5.03;4.60;;;;;;;21.69;88.63;98365.50;5076966;27;104240;-80
2023/06/20 03:24:13;;;;;;;5.40;4.87;;;;;;;21.95;87.50;98361.28;5077377;27;105171;-79
2023/06/20 03:26:41;;;;;;;5.13;4.72;;;;;;;22.12;86.74;98353.78;5109184;27;103258;-79
2023/06/20 03:29:10;;;;;;;4.72;4.32;;;;;;;22.30;84.65;98359.56;5075250;27;102756;-79
2023/06/20 03:31:41;;;;;;;5.27;4.77;;;;;;;22.42;84.58;98368.78;5098972;27;103689;-77
2023/06/20 03:34:09;;;;;;;4.37;4.07;;;;;;;22.49;82.92;98361.59;5093314;27;103431;-78
2023/06/20 03:36:39;;;;;;;5.28;4.88;;;;;;;22.52;82.91;98365.75;5076079;27;103239;-78
2023/06/20 03:39:07;;;;;;;5.78;5.18;;;;;;;22.58;81.64;98354.22;5077826;27;102991;-78
2023/06/20 03:41:35;;;;;;;5.70;5.20;;;;;;;22.48;82.75;98368.00;5081171;27;102983;-79
2023/06/20 03:44:03;;;;;;;6.30;5.70;;;;;;;22.46;82.21;98366.53;5079093;27;104044;-78
2023/06/20 03:46:31;;;;;;;6.25;5.75;;;;;;;22.51;81.56;98369.50;5082077;27;104993;-75
2023/06/20 03:49:00;;;;;;;6.15;5.57;;;;;;;22.56;81.22;98364.34;5071334;27;102925;-76
2023/06/20 03:51:28;;;;;;;6.13;5.53;;;;;;;22.50;81.83;98351.66;5083885;27;104084;-76
2023/06/20 03:53:57;;;;;;;4.43;4.13;;;;;;;22.62;79.98;98355.50;5075535;27;104058;-75
2023/06/20 03:56:25;;;;;;;4.20;3.90;;;;;;;22.73;79.10;98356.84;5080796;27;104173;-78
2023/06/20 03:58:54;;;;;;;5.13;4.72;;;;;;;22.81;79.44;98352.16;5081177;27;102778;-76
2023/06/20 04:01:24;;;;;;;5.40;4.90;;;;;;;22.86;79.42;98354.25;5096420;27;103603;-75
2023/06/20 04:03:52;;;;;;;5.82;5.22;;;;;;;22.91;80.08;98354.47;5085391;27;104129;-74
2023/06/20 04:06:20;;;;;;;6.60;6.00;;;;;;;22.77;81.39;98347.34;5093179;27;103543;-75
2023/06/20 04:08:48;;;;;;;7.15;6.55;;;;;;;22.57;82.69;98349.84;5086928;27;103569;-76
2023/06/20 04:11:17;;;;;;;7.20;6.50;;;;;;;22.65;82.87;98354.31;5079546;27;102971;-75
2023/06/20 04:13:45;;;;;;;7.32;6.65;;;;;;;22.80;81.93;98352.34;5082582;27;104186;-76
2023/06/20 04:16:13;;;;;;;7.68;6.88;;;;;;;22.77;81.73;98348.19;5083428;27;104377;-76
2023/06/20 04:18:42;;;;;;;5.95;5.45;;;;;;;22.96;81.20;98354.75;5081156;27;102678;-76
2023/06/20 04:21:10;;;;;;;6.93;6.33;;;;;;;22.98;81.47;98350.81;5081744;27;102897;-75
2023/06/20 04:23:38;;;;;;;7.40;6.50;;;;;;;23.11;80.66;98352.75;5087204;27;102734;-76
2023/06/20 04:26:09;;;;;;;7.47;6.57;;;;;;;23.12;80.60;98356.28;5104191;27;102661;-76
2023/06/20 04:28:38;;;;;;;7.35;6.75;;;;;;;23.20;80.16;98356.94;5078755;27;103040;-76
2023/06/20 04:31:06;;;;;;;6.82;6.25;;;;;;;23.19;79.89;98355.28;5076852;27;102859;-75
2023/06/20 04:33:34;;;;;;;6.87;6.20;;;;;;;23.20;80.11;98354.25;5075875;27;103722;-76
2023/06/20 04:36:05;;;;;;;6.75;6.15;;;;;;;23.33;79.62;98357.00;5082853;27;103240;-76
2023/06/20 04:38:37;;;;;;;7.20;6.60;;;;;;;23.28;79.29;98354.09;5072522;27;102921;-76
2023/06/20 04:41:05;;;;;;;6.70;6.05;;;;;;;23.38;78.64;98351.88;5066856;27;103670;-77
2023/06/20 04:43:33;;;;;;;6.05;5.55;;;;;;;23.49;78.33;98351.34;5080172;27;103253;-76
2023/06/20 04:46:02;;;;;;;5.83;5.30;;;;;;;23.53;77.95;98347.19;5075451;27;104293;-76
2023/06/20 04:48:35;;;;;;;7.28;6.35;;;;;;;23.48;78.58;98346.97;5094977;27;102653;-76
2023/06/20 04:51:07;;;;;;;5.68;5.18;;;;;;;23.64;77.93;98345.78;5070552;27;102906;-74
2023/06/20 04:53:35;;;;;;;6.43;5.70;;;;;;;23.66;77.32;98339.16;5053759;27;103900;-76
2023/06/20 04:56:04;;;;;;;6.32;5.72;;;;;;;23.65;77.65;98348.28;5072278;27;103219;-75
2023/06/20 04:58:31;;;;;;;5.67;5.17;;;;;;;23.71;76.82;98346.66;5056758;27;102914;-76
2023/06/20 05:01:02;;;;;;;5.88;5.30;;;;;;;23.70;76.80;98344.13;5063534;27;104198;-74
2023/06/20 05:03:31;;;;;;;6.25;5.75;;;;;;;23.76;76.46;98348.72;5079476;27;103372;-75
2023/06/20 05:05:59;;;;;;;5.90;5.40;;;;;;;23.78;76.77;98352.03;5068864;27;103199;-75
2023/06/20 05:08:27;;;;;;;6.93;5.90;;;;;;;23.69;76.78;98358.66;5082821;27;103330;-74
2023/06/20 05:10:55;;;;;;;5.55;5.05;;;;;;;23.69;77.02;98353.28;5064959;27;102779;-75
2023/06/20 05:13:26;;;;;;;5.70;5.30;;;;;;;23.71;77.22;98362.81;5085681;27;103240;-74
2023/06/20 05:15:54;;;;;;;5.18;4.70;;;;;;;23.81;76.27;98365.13;5082273;27;103174;-73
2023/06/20 05:18:23;;;;;;;5.03;4.53;;;;;;;23.86;75.77;98368.06;5083579;27;102744;-74
2023/06/20 05:20:53;;;;;;;5.10;4.70;;;;;;;23.87;76.02;98372.41;5063831;27;104784;-74
2023/06/20 05:23:21;;;;;;;5.20;4.70;;;;;;;23.92;75.82;98369.94;5085623;27;103687;-77
2023/06/20 05:25:49;;;;;;;4.40;4.00;;;;;;;24.05;74.66;98375.38;5067138;27;103913;-79
2023/06/20 05:28:16;;;;;;;4.40;4.00;;;;;;;23.92;74.63;98375.31;5086233;27;102707;-74
2023/06/20 05:30:44;;;;;;;5.20;4.15;;;;;;;23.87;74.28;98380.50;5081086;27;103673;-74
2023/06/20 05:33:12;;;;;;;3.58;3.38;;;;;;;24.21;73.29;98383.13;5094085;27;104697;-77
2023/06/20 05:35:44;;;;;;;4.07;3.67;;;;;;;23.98;74.50;98393.41;5085986;27;103224;-75
2023/06/20 05:38:12;;;;;;;5.05;3.70;;;;;;;24.14;72.88;98396.59;5073536;27;102603;-74
2023/06/20 05:40:40;;;;;;;4.10;3.70;;;;;;;24.32;72.09;98393.31;5078534;27;103933;-74
2023/06/20 05:43:08;;;;;;;4.45;3.72;;;;;;;24.52;71.16;98391.47;5087158;27;103031;-75
2023/06/20 05:45:36;;;;;;;4.95;4.13;;;;;;;24.54;71.08;98385.84;5075283;27;103273;-75
2023/06/20 05:48:08;;;;;;;4.23;3.83;;;;;;;24.56;70.37;98387.31;5086901;27;102685;-75
2023/06/20 05:50:37;;;;;;;5.03;4.05;;;;;;;24.47;70.81;98385.88;5091448;27;103836;-75
2023/06/20 05:53:07;;;;;;;4.25;3.85;;;;;;;24.32;70.23;98387.91;5065869;27;103460;-75
2023/06/20 05:55:35;;;;;;;4.20;3.80;;;;;;;24.50;70.09;98380.06;5089319;27;103156;-75
2023/06/20 05:58:03;;;;;;;5.03;3.83;;;;;;;24.70;69.37;98375.47;5074902;27;102815;-75
2023/06/20 06:00:31;;;;;;;4.90;4.20;;;;;;;24.62;69.39;98378.38;5093542;27;102678;-75
2023/06/20 06:02:59;;;;;;;4.50;4.10;;;;;;;24.92;69.04;98378.84;5064277;27;103288;-74
2023/06/20 06:05:27;;;;;;;3.90;3.60;;;;;;;25.08;68.66;98372.97;5083388;27;103228;-75
2023/06/20 06:07:55;;;;;;;4.72;4.28;;;;;;;24.72;68.51;98370.72;5070798;27;102810;-74
2023/06/20 06:10:25;;;;;;;4.63;3.90;;;;;;;25.14;67.64;98376.72;5074880;27;105835;-75
2023/06/20 06:12:53;;;;;;;5.38;4.05;;;;;;;24.98;67.79;98387.97;5063848;27;103400;-75
2023/06/20 06:15:21;;;;;;;6.65;4.47;;;;;;;25.03;68.23;98390.88;5059353;27;103225;-75
2023/06/20 06:17:49;;;;;;;4.40;4.10;;;;;;;25.04;66.60;98397.94;5093671;27;102867;-75
2023/06/20 06:20:19;;;;;;;4.80;4.30;;;;;;;24.67;67.55;98400.19;5061462;27;104120;-75
2023/06/20 06:22:47;;;;;;;5.20;4.70;;;;;;;24.88;67.22;98403.75;5060342;27;104087;-74
2023/06/20 06:25:15;;;;;;;3.85;3.38;;;;;;;25.57;65.75;98399.50;5082101;27;103233;-75
2023/06/20 06:27:44;;;;;;;4.45;4.05;;;;;;;25.49;65.01;98397.03;5083621;27;102592;-75
2023/06/20 06:30:14;;;;;;;4.90;4.22;;;;;;;25.49;65.22;98397.03;5061560;27;103030;-75
2023/06/20 06:32:43;;;;;;;4.87;4.37;;;;;;;25.52;65.22;98390.34;5083475;27;103313;-75
2023/06/20 06:35:13;;;;;;;5.22;3.88;;;;;;;25.64;63.79;98394.06;5078547;27;103564;-76
2023/06/20 06:38:19;;;;;;;4.40;3.58;;;;;;;25.74;63.71;98400.69;5064903;27;102923;-75
2023/06/20 06:40:47;;;;;;;4.35;3.67;;;;;;;25.76;64.20;98404.03;5080823;27;102734;-76
2023/06/20 06:43:16;;;;;;;4.85;4.05;;;;;;;25.55;64.11;98404.28;5082788;27;103565;-80
2023/06/20 06:45:49;;;;;;;4.68;4.28;;;;;;;25.64;63.87;98405.72;5059689;27;104626;-79
2023/06/20 06:48:17;;;;;;;4.10;3.70;;;;;;;26.15;62.78;98407.59;5073471;27;102567;-79
2023/06/20 06:50:45;;;;;;;4.45;3.97;;;;;;;25.84;63.57;98411.91;5082986;27;103044;-79
2023/06/20 06:53:13;;;;;;;5.50;5.00;;;;;;;25.60;64.35;98404.47;5086074;27;103979;-80
2023/06/20 06:55:47;;;;;;;5.80;4.63;;;;;;;25.56;63.39;98400.56;5088043;27;103182;-80
2023/06/20 06:58:16;;;;;;;5.07;4.57;;;;;;;26.17;61.94;98402.81;5081049;27;102553;-80
2023/06/20 07:00:44;;;;;;;6.30;4.73;;;;;;;26.06;62.07;98400.75;5066864;27;103684;-80
2023/06/20 07:03:12;;;;;;;5.93;4.70;;;;;;;26.08;61.01;98407.59;5072760;27;104292;-80
2023/06/20 07:05:40;;;;;;;4.90;4.50;;;;;;;25.93;61.50;98399.78;5083943;27;103284;-80
2023/06/20 07:08:08;;;;;;;6.07;4.70;;;;;;;26.05;61.64;98396.41;5077254;27;102818;-80
2023/06/20 07:10:38;;;;;;;5.73;4.90;;;;;;;26.01;61.50;98395.16;5087830;27;103033;-77
2023/06/20 07:13:06;;;;;;;5.28;4.68;;;;;;;26.10;60.85;98399.28;5057751;27;103736;-80
2023/06/20 07:15:36;;;;;;;6.38;4.72;;;;;;;26.33;61.66;98389.56;5080690;27;103001;-78
2023/06/20 07:18:04;;;;;;;6.30;4.90;;;;;;;26.59;61.04;98388.56;5080090;27;102673;-78
2023/06/20 07:20:32;;;;;;;6.07;4.70;;;;;;;26.46;60.08;98389.50;5078246;27;103784;-78
2023/06/20 07:23:02;;;;;;;5.47;4.78;;;;;;;27.03;60.18;98388.41;5063059;27;105084;-79
2023/06/20 07:25:30;;;;;;;5.82;5.10;;;;;;;26.75;60.41;98389.91;5077983;27;103171;-79
2023/06/20 07:27:58;;;;;;;5.30;4.72;;;;;;;26.95;59.09;98387.88;5084595;27;102552;-78
2023/06/20 07:30:26;;;;;;;6.28;4.82;;;;;;;27.05;58.63;98394.47;5081222;27;103936;-78
2023/06/20 07:32:55;;;;;;;6.20;4.80;;;;;;;27.21;58.74;98392.22;5074384;27;104749;-79
2023/06/20 07:35:23;;;;;;;6.40;4.63;;;;;;;27.30;58.35;98386.28;5075007;27;103271;-79
2023/06/20 07:37:51;;;;;;;6.88;5.25;;;;;;;27.29;57.79;98387.34;5078789;27;102695;-80
2023/06/20 07:40:19;;;;;;;5.37;4.87;;;;;;;27.15;57.52;98387.69;5086676;27;103115;-80
2023/06/20 07:42:47;;;;;;;5.30;4.80;;;;;;;27.56;57.01;98390.63;5085363;27;102700;-79
2023/06/20 07:45:21;;;;;;;6.25;5.10;;;;;;;27.60;57.86;98392.66;5085238;27;103192;-80
2023/06/20 07:47:49;;;;;;;6.82;4.70;;;;;;;27.49;57.82;98396.13;5089145;27;102531;-80
2023/06/20 07:50:18;;;;;;;6.70;5.03;;;;;;;27.82;56.58;98386.78;5090771;27;103864;-80
2023/06/20 07:52:48;;;;;;;5.10;4.60;;;;;;;28.26;56.11;98380.13;5066107;27;103401;-80
2023/06/20 07:55:16;;;;;;;6.87;5.00;;;;;;;28.07;55.11;98388.31;5070455;27;104165;-79
2023/06/20 07:57:59;;;;;;;6.73;5.27;;;;;;;27.75;56.17;98395.00;5088249;27;102779;-80
2023/06/20 08:00:28;;;;;;;6.15;5.10;;;;;;;28.00;56.00;98390.28;5089716;27;102685;-79
2023/06/20 08:02:56;;;;;;;6.55;4.85;;;;;;;28.33;54.56;98392.56;5058046;27;103304;-81
2023/06/20 08:05:26;;;;;;;5.25;4.70;;;;;;;28.31;54.70;98382.97;5063121;27;103219;-80
2023/06/20 08:07:54;;;;;;;7.00;5.40;;;;;;;28.56;54.36;98380.94;5063355;27;103516;-81
2023/06/20 08:10:25;;;;;;;5.28;4.78;;;;;;;29.33;52.85;98384.47;5080065;27;103959;-81
2023/06/20 08:12:53;;;;;;;5.80;5.03;;;;;;;29.38;52.43;98384.59;5059064;27;103344;-81
2023/06/20 08:15:20;;;;;;;6.65;4.93;;;;;;;29.57;51.40;98377.91;5063115;27;103292;-81
2023/06/20 08:17:48;;;;;;;7.13;5.53;;;;;;;29.28;51.93;98379.72;5085077;27;102810;-81
2023/06/20 08:20:16;;;;;;;5.67;5.10;;;;;;;29.33;52.21;98376.31;5075626;27;104451;-81
2023/06/20 08:22:46;;;;;;;6.45;5.22;;;;;;;28.95;52.90;98379.47;5072968;27;104502;-81
2023/06/20 08:25:14;;;;;;;6.93;5.15;;;;;;;29.46;51.59;98376.03;5075001;27;103239;-81
2023/06/20 08:27:41;;;;;;;7.03;5.17;;;;;;;29.53;51.59;98374.03;5087225;27;102718;-81
2023/06/20 08:30:11;;;;;;;5.43;4.93;;;;;;;30.38;50.15;98380.41;5070825;27;103679;-81
2023/06/20 08:32:41;;;;;;;8.35;5.40;;;;;;;29.88;50.08;98374.78;5060791;27;103622;-81
2023/06/20 08:35:10;;;;;;;5.78;5.18;;;;;;;30.23;50.04;98375.47;5070625;27;104446;-81
2023/06/20 08:37:38;;;;;;;6.82;5.60;;;;;;;30.22;49.46;98376.56;5083132;27;102660;-81
2023/06/20 08:40:12;;;;;;;6.00;5.40;;;;;;;30.62;49.22;98370.22;5067615;27;104116;-81
2023/06/20 08:42:44;;;;;;;5.93;4.95;;;;;;;31.02;48.42;98364.63;5068507;27;103954;-79
2023/06/20 08:45:12;;;;;;;6.93;5.47;;;;;;;31.14;48.35;98360.69;5088133;27;103236;-79
2023/06/20 08:47:42;;;;;;;5.75;5.22;;;;;;;31.32;46.99;98354.97;5080330;27;102764;-80
2023/06/20 08:50:11;;;;;;;8.07;5.68;;;;;;;30.87;47.07;98357.00;5063415;27;103009;-79
2023/06/20 08:52:47;;;;;;;6.70;5.30;;;;;;;32.08;45.83;98356.81;5067918;27;103097;-80
2023/06/20 08:55:17;;;;;;;7.10;4.97;;;;;;;32.48;45.16;98356.38;5060751;27;103243;-80
2023/06/20 08:57:46;;;;;;;6.20;5.43;;;;;;;32.24;44.99;98352.31;5068743;27;102894;-80
2023/06/20 09:00:17;;;;;;;5.82;5.25;;;;;;;31.95;44.30;98356.31;5092844;27;103356;-79
2023/06/20 09:02:45;;;;;;;5.87;5.13;;;;;;;32.70;44.61;98345.41;5077985;27;103306;-80
2023/06/20 09:05:13;;;;;;;7.47;5.63;;;;;;;32.19;44.87;98357.72;5071573;27;103573;-80
2023/06/20 09:07:44;;;;;;;6.23;5.53;;;;;;;32.82;43.06;98361.59;5083733;27;102602;-81
2023/06/20 09:10:13;;;;;;;7.37;5.60;;;;;;;33.14;43.59;98346.00;5086936;27;102886;-81
2023/06/20 09:12:47;;;;;;;8.55;5.88;;;;;;;32.91;43.26;98354.56;5078676;27;103242;-80
2023/06/20 09:15:16;;;;;;;5.47;4.43;;;;;;;33.39;43.46;98332.47;5066670;27;103989;-80
2023/06/20 09:17:44;;;;;;;7.47;5.70;;;;;;;33.07;43.23;98328.97;5069372;27;102691;-81
2023/06/20 09:20:14;;;;;;;6.85;5.22;;;;;;;32.60;43.10;98335.19;5084081;27;102768;-80
2023/06/20 09:22:42;;;;;;;7.20;4.53;;;;;;;33.21;42.83;98328.25;5087836;27;103301;-81
2023/06/20 09:25:11;;;;;;;12.18;5.70;;;;;;;33.59;41.60;98329.84;5079144;27;103376;-81
2023/06/20 09:27:41;;;;;;;10.15;5.90;;;;;;;33.64;42.51;98327.13;5069978;27;102645;-81
2023/06/20 09:30:11;;;;;;;7.97;5.68;;;;;;;33.52;42.07;98321.03;5085652;27;102631;-80
2023/06/20 09:32:41;;;;;;;4.75;4.35;;;;;;;33.77;41.80;98323.88;5074590;27;102803;-80
2023/06/20 09:35:10;;;;;;;6.07;5.30;;;;;;;34.05;41.57;98314.38;5057097;27;103327;-76
2023/06/20 09:37:42;;;;;;;6.10;5.47;;;;;;;33.92;42.14;98314.06;5082375;27;102647;-75
2023/06/20 09:40:12;;;;;;;9.93;4.63;;;;;;;33.82;41.45;98298.44;5087994;27;104045;-76
2023/06/20 09:42:42;;;;;;;6.05;5.30;;;;;;;34.09;40.25;98315.53;5082432;27;103299;-75
2023/06/20 09:45:13;;;;;;;4.80;4.40;;;;;;;34.48;38.60;98304.88;5080710;27;103262;-78
2023/06/20 09:47:42;;;;;;;6.68;4.80;;;;;;;34.67;39.30;98305.19;5065982;27;102811;-79
2023/06/20 09:50:13;;;;;;;5.50;4.90;;;;;;;35.23;39.49;98301.25;5086590;27;102749;-80
2023/06/20 09:52:45;;;;;;;6.05;5.45;;;;;;;35.45;37.72;98306.41;5083395;27;104143;-81
2023/06/20 09:55:20;;;;;;;6.85;5.55;;;;;;;35.30;37.76;98301.78;5057903;27;104455;-80
2023/06/20 09:57:51;;;;;;;9.10;8.20;;;;;;;35.58;37.82;98294.84;5069097;27;102828;-77
2023/06/20 10:00:24;;;;;;;12.18;11.00;;;;;;;35.48;37.70;98284.69;5059193;27;103044;-81
2023/06/20 10:02:54;;;;;;;6.10;5.50;;;;;;;35.01;38.56;98286.19;5064649;27;103259;-82
2023/06/20 10:05:24;;;;;;;6.90;6.00;;;;;;;35.00;38.83;98282.63;5056611;27;103209;-75
2023/06/20 10:07:52;;;;;;;7.18;5.65;;;;;;;34.72;38.84;98285.97;5078141;27;102885;-75
2023/06/20 10:10:20;;;;;;;6.07;5.47;;;;;;;36.11;37.02;98282.22;5070137;27;102827;-74
2023/06/20 10:12:49;;;;;;;6.67;5.60;;;;;;;35.89;36.38;98288.09;5064344;27;104407;-76
2023/06/20 10:15:17;;;;;;;6.57;5.45;;;;;;;35.82;34.98;98279.34;5053009;27;104487;-75
2023/06/20 10:17:47;;;;;;;7.20;5.55;;;;;;;35.37;36.14;98276.78;5069614;27;103521;-75
2023/06/20 10:20:27;;;;;;;6.77;5.57;;;;;;;36.08;35.44;98288.28;5081332;27;102734;-75
2023/06/20 10:22:58;;;;;;;7.70;5.13;;;;;;;36.16;35.09;98282.16;5084076;27;103485;-75
2023/06/20 10:25:27;;;;;;;5.45;4.93;;;;;;;36.76;34.94;98278.13;5078267;27;103169;-75
2023/06/20 10:27:57;;;;;;;7.22;5.32;;;;;;;35.52;35.44;98284.97;5054137;27;102793;-76
2023/06/20 10:30:57;;;;;;;6.75;4.85;;;;;;;35.86;34.16;98274.94;5065303;27;104439;-73
2023/06/20 10:33:28;;;;;;;5.65;5.10;;;;;;;36.24;34.50;98278.00;5076855;27;104247;-74
2023/06/20 10:35:57;;;;;;;5.20;4.70;;;;;;;36.83;32.94;98273.09;5083430;27;103205;-76
2023/06/20 10:38:26;;;;;;;5.90;5.30;;;;;;;35.97;33.73;98265.50;5064191;27;102929;-75
2023/06/20 10:41:08;;;;;;;7.13;4.90;;;;;;;36.04;35.07;98277.03;5084950;27;103276;-74
2023/06/20 10:43:50;;;;;;;5.93;5.07;;;;;;;36.03;33.24;98269.91;5083738;27;103276;-72
2023/06/20 10:46:19;;;;;;;7.23;4.73;;;;;;;36.71;33.35;98264.44;5075057;27;103185;-73
2023/06/20 10:48:49;;;;;;;5.78;5.18;;;;;;;36.29;32.36;98262.28;5056066;27;102680;-75
2023/06/20 10:51:17;;;;;;;6.17;5.00;;;;;;;36.11;33.35;98270.38;5080531;27;104989;-74
2023/06/20 10:53:47;;;;;;;6.93;5.57;;;;;;;35.78;33.70;98261.78;5079296;27;103502;-73
2023/06/20 10:56:28;;;;;;;6.00;4.72;;;;;;;37.12;32.64;98260.16;5061209;27;103229;-73
2023/06/20 10:58:56;;;;;;;5.50;4.70;;;;;;;36.86;32.61;98260.72;5081931;27;102881;-75
2023/06/20 11:01:28;;;;;;;5.20;4.70;;;;;;;36.41;32.92;98253.69;5085576;27;102894;-73
2023/06/20 11:03:58;;;;;;;6.53;4.68;;;;;;;36.40;31.88;98254.78;5056251;27;104278;-73
2023/06/20 11:06:30;;;;;;;5.20;4.70;;;;;;;36.53;33.03;98254.13;5062801;27;103256;-74
2023/06/20 11:08:58;;;;;;;6.33;5.00;;;;;;;36.41;32.83;98253.69;5061584;27;102881;-74
2023/06/20 11:11:33;;;;;;;6.63;4.77;;;;;;;37.14;32.87;98246.91;5063929;27;104203;-73
2023/06/20 11:14:12;;;;;;;5.20;4.70;;;;;;;36.81;31.55;98242.31;5082536;27;104310;-74
2023/06/20 11:16:40;;;;;;;7.72;5.30;;;;;;;36.59;31.90;98240.06;5080276;27;103158;-74
2023/06/20 11:19:10;;;;;;;6.03;5.00;;;;;;;37.19;30.92;98244.09;5059493;27;102837;-73
2023/06/20 11:22:00;;;;;;;5.40;4.57;;;;;;;36.94;31.44;98241.59;5063850;27;103792;-74
2023/06/20 11:24:30;;;;;;;5.45;4.90;;;;;;;37.25;31.26;98241.31;5005957;27;104035;-75
2023/06/20 11:27:11;;;;;;;5.10;4.63;;;;;;;37.90;30.41;98239.66;5004127;27;104698;-75
2023/06/20 11:29:39;;;;;;;5.18;4.70;;;;;;;38.02;29.76;98235.31;5025016;27;102881;-75
2023/06/20 11:32:10;;;;;;;6.32;5.05;;;;;;;36.67;30.62;98235.84;5022468;27;102884;-73
2023/06/20 11:35:08;;;;;;;6.00;4.95;;;;;;;37.02;30.61;98227.25;5018627;27;103382;-74
2023/06/20 11:37:47;;;;;;;5.10;4.65;;;;;;;37.23;29.71;98221.50;5000828;27;103530;-75
2023/06/20 11:40:15;;;;;;;6.57;4.95;;;;;;;36.46;29.08;98224.19;5025500;27;103246;-74
2023/06/20 11:42:43;;;;;;;6.13;4.85;;;;;;;36.30;29.54;98216.34;5022269;27;104037;-74
2023/06/20 11:45:12;;;;;;;6.15;5.00;;;;;;;35.26;31.40;98214.75;5029141;27;103344;-75
2023/06/20 11:47:48;;;;;;;6.05;5.40;;;;;;;35.10;31.70;98215.94;5043738;27;113213;-79
2023/06/20 11:50:25;;;;;;;7.67;4.90;;;;;;;34.54;31.31;98213.28;5024519;27;102748;-75
2023/06/20 11:52:59;;;;;;;5.57;4.57;;;;;;;33.83;32.20;98211.63;5031536;27;103874;-77